createdAt,value
2023-04-15T00:02:21.619Z,88.60
2023-04-15T00:07:25.517Z,88.50
2023-04-15T00:12:30.379Z,88.20
2023-04-15T00:17:33.819Z,88.10
2023-04-15T00:22:37.285Z,88.10
2023-04-15T00:27:42.238Z,88.10
2023-04-15T00:32:45.738Z,87.80
2023-04-15T00:37:49.148Z,87.70
2023-04-15T00:42:54.332Z,87.60
2023-04-15T00:47:58.157Z,87.40
2023-04-15T00:53:01.603Z,87.10
2023-04-15T00:58:06.390Z,88.00
2023-04-15T01:03:10.338Z,87.00
2023-04-15T01:08:14.078Z,87.00
2023-04-15T01:13:19.289Z,86.80
2023-04-15T01:18:23.365Z,86.60
2023-04-15T01:23:27.408Z,86.60
2023-04-15T01:28:32.984Z,86.40
2023-04-15T01:33:36.666Z,86.20
2023-04-15T01:38:40.202Z,85.70
2023-04-15T01:43:44.923Z,85.90
2023-04-15T01:48:48.508Z,85.70
2023-04-15T01:53:52.493Z,85.50
2023-04-15T01:58:57.273Z,85.70
2023-04-15T02:04:01.431Z,86.10
2023-04-15T02:09:04.994Z,85.90
2023-04-15T02:14:10.175Z,87.10
2023-04-15T02:19:14.052Z,86.10
2023-04-15T02:24:17.496Z,86.10
2023-04-15T02:29:22.981Z,86.10
2023-04-15T02:34:27.477Z,85.90
2023-04-15T02:39:30.965Z,85.90
2023-04-15T02:44:36.581Z,85.70
2023-04-15T02:49:40.928Z,85.80
2023-04-15T02:54:44.694Z,85.80
2023-04-15T02:59:49.442Z,85.70
2023-04-15T03:04:52.810Z,85.30
2023-04-15T03:09:56.360Z,85.00
2023-04-15T03:15:02.176Z,84.60
2023-04-15T03:20:07.224Z,84.10
2023-04-15T03:25:11.469Z,83.40
2023-04-15T03:30:16.506Z,82.70
2023-04-15T03:35:19.902Z,82.10
2023-04-15T03:40:23.527Z,82.20
2023-04-15T03:45:28.334Z,82.30
2023-04-15T03:50:31.857Z,82.20
2023-04-15T03:55:35.663Z,81.90
2023-04-15T04:00:41.480Z,81.90
2023-04-15T04:05:45.182Z,81.90
2023-04-15T04:10:48.927Z,81.80
2023-04-15T04:15:53.730Z,81.50
2023-04-15T04:20:57.249Z,81.20
2023-04-15T04:26:01.076Z,81.10
2023-04-15T04:31:06.776Z,80.80
2023-04-15T04:36:10.558Z,80.70
2023-04-15T04:41:14.037Z,80.80
2023-04-15T04:46:18.785Z,80.80
2023-04-15T04:51:22.910Z,80.50
2023-04-15T04:56:26.267Z,80.50
2023-04-15T05:01:31.074Z,80.50
2023-04-15T05:06:36.629Z,80.30
2023-04-15T05:11:40.114Z,80.10
2023-04-15T05:16:45.414Z,79.20
2023-04-15T05:21:48.949Z,78.80
2023-04-15T05:26:52.302Z,77.40
2023-04-15T05:31:57.178Z,77.10
2023-04-15T05:37:00.694Z,77.00
2023-04-15T05:42:06.039Z,77.40
2023-04-15T05:47:11.013Z,77.60
2023-04-15T05:52:14.997Z,77.30
2023-04-15T05:57:18.433Z,75.40
2023-04-15T06:02:23.515Z,75.30
2023-04-15T06:07:26.901Z,74.50
2023-04-15T06:12:30.685Z,74.20
2023-04-15T06:17:35.734Z,75.40
2023-04-15T06:22:40.116Z,74.00
2023-04-15T06:27:43.679Z,74.20
2023-04-15T06:32:48.843Z,74.10
2023-04-15T06:37:52.702Z,73.10
2023-04-15T06:42:56.698Z,72.70
2023-04-15T06:48:01.437Z,72.70
2023-04-15T06:53:04.916Z,72.00
2023-04-15T06:58:08.353Z,72.10
2023-04-15T07:03:13.889Z,71.90
2023-04-15T07:08:17.348Z,72.00
2023-04-15T07:13:20.798Z,72.00
2023-04-15T07:18:25.626Z,71.90
2023-04-15T07:23:29.514Z,72.10
2023-04-15T07:28:33.005Z,71.40
2023-04-15T07:33:38.077Z,71.80
2023-04-15T07:38:41.645Z,71.80
2023-04-15T07:43:45.348Z,72.10
2023-04-15T07:48:50.291Z,72.00
2023-04-15T07:53:55.562Z,72.10
2023-04-15T07:58:59.097Z,72.00
2023-04-15T08:04:04.248Z,71.80
2023-04-15T08:09:08.270Z,71.00
2023-04-15T08:14:11.906Z,70.70
2023-04-15T08:19:17.207Z,70.40
2023-04-15T08:24:21.417Z,70.30
2023-04-15T08:29:25.103Z,69.90
2023-04-15T08:34:30.760Z,70.40
2023-04-15T08:39:34.304Z,69.80
2023-04-15T08:44:38.415Z,69.70
2023-04-15T08:49:44.379Z,68.80
2023-04-15T08:54:49.222Z,68.10
2023-04-15T08:59:53.810Z,68.50
2023-04-15T09:04:58.650Z,68.70
2023-04-15T09:10:02.554Z,68.20
2023-04-15T09:15:07.002Z,68.30
2023-04-15T09:20:14.098Z,69.00
2023-04-15T09:25:28.376Z,68.60
2023-04-15T09:30:31.895Z,68.70
2023-04-15T09:35:37.336Z,68.50
2023-04-15T09:40:42.690Z,68.00
2023-04-15T09:45:50.397Z,68.50
2023-04-15T09:50:57.167Z,67.40
2023-04-15T09:56:02.449Z,66.90
2023-04-15T10:01:07.749Z,66.90
2023-04-15T10:06:13.270Z,66.80
2023-04-15T10:11:18.600Z,66.60
2023-04-15T10:16:23.085Z,66.00
2023-04-15T10:21:29.699Z,65.70
2023-04-15T10:26:33.878Z,65.70
2023-04-15T10:31:38.443Z,66.60
2023-04-15T10:36:43.276Z,65.70
2023-04-15T10:41:46.750Z,64.10
2023-04-15T10:46:53.197Z,63.30
2023-04-15T10:52:00.996Z,62.20
2023-04-15T10:57:15.869Z,63.70
2023-04-15T11:02:19.505Z,63.80
2023-04-15T11:07:39.510Z,63.10
2023-04-15T11:12:43.124Z,62.40
2023-04-15T11:17:46.772Z,62.30
2023-04-15T11:22:52.539Z,62.60
2023-04-15T11:28:13.564Z,62.00
2023-04-15T11:33:17.949Z,60.80
2023-04-15T11:38:23.482Z,61.20
2023-04-15T11:43:27.190Z,61.40
2023-04-15T11:48:34.634Z,57.50
2023-04-15T11:53:41.515Z,58.00
2023-04-15T11:58:46.637Z,59.70
2023-04-15T12:03:50.776Z,59.20
2023-04-15T12:09:05.145Z,57.40
2023-04-15T12:14:11.483Z,57.50
2023-04-15T12:19:16.530Z,58.10
2023-04-15T12:24:24.055Z,56.40
2023-04-15T12:29:29.128Z,57.00
2023-04-15T12:34:34.162Z,56.20
2023-04-15T12:39:40.643Z,56.30
2023-04-15T12:44:44.148Z,52.80
2023-04-15T12:49:49.634Z,54.90
2023-04-15T12:54:54.677Z,53.90
2023-04-15T12:59:58.649Z,50.80
2023-04-15T13:05:02.331Z,53.80
2023-04-15T13:10:08.244Z,53.50
2023-04-15T13:15:13.280Z,54.50
2023-04-15T13:20:17.538Z,54.40
2023-04-15T13:25:22.691Z,54.50
2023-04-15T13:30:26.366Z,53.70
2023-04-15T13:35:29.925Z,53.90
2023-04-15T13:40:34.705Z,54.20
2023-04-15T13:45:38.221Z,52.00
2023-04-15T13:50:45.288Z,53.30
2023-04-15T13:55:50.107Z,52.10
2023-04-15T14:00:53.744Z,47.30
2023-04-15T14:05:58.122Z,47.10
2023-04-15T14:11:02.949Z,49.10
2023-04-15T14:16:06.884Z,46.70
2023-04-15T14:21:10.460Z,43.10
2023-04-15T14:26:15.336Z,42.40
2023-04-15T14:31:20.004Z,45.30
2023-04-15T14:36:23.505Z,45.50
2023-04-15T14:41:28.275Z,45.70
2023-04-15T14:46:31.851Z,42.70
2023-04-15T14:51:35.472Z,37.40
2023-04-15T14:56:40.285Z,32.90
2023-04-15T15:01:44.339Z,36.00
2023-04-15T15:06:49.139Z,34.80
2023-04-15T15:11:54.494Z,32.80
2023-04-15T15:16:58.045Z,30.00
2023-04-15T15:22:02.567Z,27.70
2023-04-15T15:27:07.453Z,31.70
2023-04-15T15:32:10.915Z,31.50
2023-04-15T15:37:14.319Z,30.50
2023-04-15T15:42:20.386Z,31.90
2023-04-15T15:47:23.907Z,32.20
2023-04-15T15:52:27.408Z,29.90
2023-04-15T15:57:32.227Z,28.90
2023-04-15T16:07:43.694Z,30.40
2023-04-15T16:12:48.600Z,31.50
2023-04-15T16:17:52.323Z,34.40
2023-04-15T16:22:57.487Z,35.40
2023-04-15T16:28:11.561Z,35.60
2023-04-15T16:33:22.281Z,36.20
2023-04-15T16:38:25.714Z,37.00
2023-04-15T16:43:30.959Z,37.90
2023-04-15T16:48:34.562Z,38.40
2023-04-15T16:53:38.054Z,38.60
2023-04-15T16:58:42.996Z,39.00
2023-04-15T17:03:47.722Z,39.40
2023-04-15T17:08:51.741Z,40.10
2023-04-15T17:13:56.756Z,40.40
2023-04-15T17:19:00.383Z,40.60
2023-04-15T17:24:04.298Z,41.20
2023-04-15T17:29:10.297Z,41.90
2023-04-15T17:34:15.720Z,42.10
2023-04-15T17:39:19.461Z,42.20
2023-04-15T17:44:25.333Z,42.40
2023-04-15T17:49:30.710Z,42.80
2023-04-15T17:54:34.537Z,43.20
2023-04-15T17:59:43.932Z,44.40
2023-04-15T18:04:47.447Z,44.00
2023-04-15T18:09:51.996Z,44.50
2023-04-15T18:14:57.687Z,44.90
2023-04-15T18:20:02.011Z,47.40
2023-04-15T18:25:06.811Z,49.50
2023-04-15T18:30:13.144Z,50.90
2023-04-15T18:35:18.308Z,51.30
2023-04-15T18:40:22.085Z,51.90
2023-04-15T18:45:27.288Z,52.80
2023-04-15T18:50:31.165Z,53.20
2023-04-15T18:55:35.918Z,53.50
2023-04-15T19:00:43.928Z,53.70
2023-04-15T19:05:48.629Z,53.80
2023-04-15T19:10:53.409Z,53.90
2023-04-15T19:15:58.469Z,53.90
2023-04-15T19:21:03.179Z,54.20
2023-04-15T19:26:08.255Z,55.00
2023-04-15T19:31:13.188Z,55.00
2023-04-15T19:36:18.152Z,55.00
2023-04-15T19:41:22.111Z,55.30
2023-04-15T19:46:27.942Z,55.60
2023-04-15T19:51:33.117Z,56.00
2023-04-15T19:56:37.166Z,56.20
2023-04-15T20:01:42.313Z,56.30
2023-04-15T20:06:46.035Z,56.60
2023-04-15T20:12:46.092Z,56.60
2023-04-15T20:17:16.676Z,57.10
2023-04-15T20:22:20.144Z,57.30
2023-04-15T20:27:23.657Z,57.10
2023-04-15T20:32:28.833Z,57.20
2023-04-15T20:37:34.542Z,57.70
2023-04-15T20:42:39.022Z,58.50
2023-04-15T20:47:44.205Z,58.50
2023-04-15T20:52:47.930Z,58.30
2023-04-15T20:57:51.524Z,58.30
2023-04-15T21:02:56.610Z,58.40
2023-04-15T21:08:00.410Z,58.50
2023-04-15T21:13:04.111Z,59.00
2023-04-15T21:18:09.223Z,59.20
2023-04-15T21:23:13.135Z,59.50
2023-04-15T21:28:16.903Z,59.60
2023-04-15T21:33:21.971Z,59.60
2023-04-15T21:38:26.083Z,59.70
2023-04-15T21:43:30.039Z,59.30
2023-04-15T21:48:34.865Z,59.40
2023-04-15T21:53:38.772Z,59.30
2023-04-15T21:58:42.983Z,59.50
2023-04-15T22:03:48.143Z,59.80
2023-04-15T22:08:56.894Z,59.80
2023-04-15T22:14:01.140Z,59.70
2023-04-15T22:19:06.414Z,59.50
2023-04-15T22:24:32.521Z,59.20
2023-04-15T22:29:33.789Z,59.70
2023-04-15T22:34:38.694Z,59.60
2023-04-15T22:39:42.214Z,59.70
2023-04-15T22:44:45.707Z,59.80
2023-04-15T22:49:50.523Z,59.80
2023-04-15T22:54:55.436Z,60.00
2023-04-15T22:59:59.138Z,60.00
2023-04-15T23:05:11.749Z,60.40
2023-04-15T23:10:17.126Z,60.70
2023-04-15T23:15:21.065Z,61.00
2023-04-15T23:20:25.939Z,61.20
2023-04-15T23:25:29.664Z,61.50
2023-04-15T23:30:33.146Z,61.80
2023-04-15T23:35:38.303Z,61.70
2023-04-15T23:40:41.779Z,61.50
2023-04-15T23:45:45.512Z,61.90
2023-04-15T23:50:50.501Z,62.20
2023-04-15T23:55:54.151Z,62.20
